createdAt,value
2018-04-12T00:02:05.429Z,59.03
2018-04-12T00:04:32.881Z,59.47
2018-04-12T00:07:00.353Z,59.51
2018-04-12T00:09:27.834Z,58.94
2018-04-12T00:11:55.410Z,58.62
2018-04-12T00:14:23.183Z,58.50
2018-04-12T00:16:51.092Z,58.74
2018-04-12T00:19:18.622Z,59.14
2018-04-12T00:24:21.271Z,59.75
2018-04-12T00:26:48.794Z,59.98
2018-04-12T00:29:16.327Z,60.47
2018-04-12T00:31:43.859Z,60.96
2018-04-12T00:34:16.452Z,61.24
2018-04-12T00:36:44.320Z,61.22
2018-04-12T00:39:12.303Z,60.44
2018-04-12T00:41:45.787Z,60.92
2018-04-12T00:44:13.475Z,60.78
2018-04-12T00:46:52.476Z,60.80
2018-04-12T00:49:20.543Z,61.05
2018-04-12T00:51:55.330Z,61.01
2018-04-12T00:54:26.822Z,61.42
2018-04-12T00:56:54.440Z,61.55
2018-04-12T00:59:22.029Z,61.95
2018-04-12T01:01:52.408Z,62.09
2018-04-12T01:04:27.614Z,62.29
2018-04-12T01:06:55.948Z,62.17
2018-04-12T01:09:23.773Z,62.30
2018-04-12T01:11:51.249Z,62.55
2018-04-12T01:14:18.731Z,63.26
2018-04-12T01:16:46.204Z,62.92
2018-04-12T01:19:13.680Z,62.63
2018-04-12T01:21:41.216Z,62.71
2018-04-12T01:24:08.716Z,62.90
2018-04-12T01:26:36.203Z,63.34
2018-04-12T01:29:03.700Z,63.02
2018-04-12T01:31:31.201Z,62.81
2018-04-12T01:33:58.687Z,62.98
2018-04-12T01:36:26.157Z,62.66
2018-04-12T01:38:53.643Z,63.13
2018-04-12T01:41:21.114Z,63.01
2018-04-12T01:43:48.576Z,62.96
2018-04-12T01:46:16.120Z,62.26
2018-04-12T01:48:43.611Z,62.84
2018-04-12T01:51:11.184Z,63.21
2018-04-12T01:53:38.680Z,63.20
2018-04-12T01:56:06.144Z,63.15
2018-04-12T01:58:33.641Z,62.84
2018-04-12T02:01:01.136Z,63.30
2018-04-12T02:03:28.673Z,63.13
2018-04-12T02:05:56.431Z,63.17
2018-04-12T02:08:23.927Z,63.34
2018-04-12T02:10:51.401Z,63.70
2018-04-12T02:13:18.848Z,63.60
2018-04-12T02:15:46.371Z,63.15
2018-04-12T02:18:13.842Z,63.42
2018-04-12T02:20:41.301Z,63.15
2018-04-12T02:23:08.783Z,63.14
2018-04-12T02:25:36.243Z,63.29
2018-04-12T02:28:03.712Z,63.82
2018-04-12T02:30:31.180Z,63.50
2018-04-12T02:32:58.742Z,63.58
2018-04-12T02:35:26.328Z,64.10
2018-04-12T02:37:53.805Z,64.32
2018-04-12T02:40:21.288Z,64.36
2018-04-12T02:42:48.759Z,64.54
2018-04-12T02:45:16.248Z,64.56
2018-04-12T02:47:43.729Z,64.54
2018-04-12T02:50:11.278Z,64.58
2018-04-12T02:52:38.870Z,64.63
2018-04-12T02:55:06.337Z,65.33
2018-04-12T02:57:33.802Z,65.47
2018-04-12T03:00:01.289Z,65.71
2018-04-12T03:02:28.796Z,65.53
2018-04-12T03:04:56.455Z,65.85
2018-04-12T03:07:23.933Z,65.67
2018-04-12T03:09:51.630Z,65.24
2018-04-12T03:12:19.144Z,65.37
2018-04-12T03:14:46.610Z,65.32
2018-04-12T03:17:14.118Z,65.31
2018-04-12T03:19:41.578Z,65.71
2018-04-12T03:22:09.054Z,65.68
2018-04-12T03:24:36.624Z,65.54
2018-04-12T03:27:04.086Z,65.70
2018-04-12T03:29:31.583Z,65.73
2018-04-12T03:31:59.091Z,66.31
2018-04-12T03:34:26.565Z,66.89
2018-04-12T03:36:54.131Z,66.74
2018-04-12T03:39:21.616Z,66.50
2018-04-12T03:41:49.086Z,67.11
2018-04-12T03:44:16.678Z,66.44
2018-04-12T03:46:44.173Z,66.97
2018-04-12T03:49:11.709Z,67.19
2018-04-12T03:51:39.183Z,67.31
2018-04-12T03:54:06.672Z,66.30
2018-04-12T03:56:34.427Z,66.81
2018-04-12T03:59:01.927Z,66.85
2018-04-12T04:01:29.424Z,66.81
2018-04-12T04:03:57.097Z,67.14
2018-04-12T04:06:24.579Z,67.59
2018-04-12T04:08:52.047Z,66.88
2018-04-12T04:11:19.522Z,66.67
2018-04-12T04:13:47.041Z,67.02
2018-04-12T04:16:26.274Z,67.85
2018-04-12T04:19:05.831Z,67.64
2018-04-12T04:21:33.318Z,68.24
2018-04-12T04:24:00.908Z,68.52
2018-04-12T04:26:28.588Z,68.25
2018-04-12T04:28:56.095Z,68.41
2018-04-12T04:31:23.670Z,68.43
2018-04-12T04:33:51.138Z,69.55
2018-04-12T04:36:18.619Z,68.89
2018-04-12T04:38:46.162Z,68.93
2018-04-12T04:41:13.643Z,69.05
2018-04-12T04:43:41.113Z,69.31
2018-04-12T04:46:08.650Z,69.44
2018-04-12T04:48:36.154Z,68.90
2018-04-12T04:51:03.737Z,68.62
2018-04-12T04:53:31.331Z,68.51
2018-04-12T04:55:58.946Z,68.93
2018-04-12T04:58:26.436Z,68.11
2018-04-12T05:00:53.987Z,68.15
2018-04-12T05:03:21.477Z,67.68
2018-04-12T05:05:49.264Z,67.32
2018-04-12T05:08:16.773Z,67.55
2018-04-12T05:10:44.374Z,67.41
2018-04-12T05:13:11.899Z,67.43
2018-04-12T05:15:39.488Z,66.98
2018-04-12T05:18:06.985Z,66.79
2018-04-12T05:20:34.466Z,66.81
2018-04-12T05:23:01.961Z,67.73
2018-04-12T05:25:29.451Z,67.61
2018-04-12T05:27:56.936Z,67.68
2018-04-12T05:30:24.684Z,67.33
2018-04-12T05:32:52.290Z,66.86
2018-04-12T05:35:19.841Z,66.68
2018-04-12T05:37:47.365Z,66.56
2018-04-12T05:40:14.865Z,66.64
2018-04-12T05:42:42.344Z,66.25
2018-04-12T05:45:09.889Z,66.19
2018-04-12T05:47:37.795Z,64.35
2018-04-12T05:50:05.311Z,63.52
2018-04-12T05:52:33.185Z,63.28
2018-04-12T05:55:00.894Z,62.69
2018-04-12T05:57:28.471Z,62.12
2018-04-12T05:59:56.096Z,62.19
2018-04-12T06:02:23.615Z,61.53
2018-04-12T06:04:51.159Z,61.10
2018-04-12T06:07:18.645Z,61.33
2018-04-12T06:09:46.466Z,60.69
2018-04-12T06:12:13.945Z,60.03
2018-04-12T06:14:41.449Z,60.91
2018-04-12T06:17:08.905Z,59.75
2018-04-12T06:19:36.409Z,58.58
2018-04-12T06:22:04.054Z,58.86
2018-04-12T06:24:31.695Z,59.59
2018-04-12T06:26:59.175Z,58.66
2018-04-12T06:29:26.690Z,58.17
2018-04-12T06:31:54.303Z,58.26
2018-04-12T06:34:21.798Z,58.16
2018-04-12T06:36:49.293Z,57.50
2018-04-12T06:39:16.843Z,57.45
2018-04-12T06:41:44.315Z,57.20
2018-04-12T06:44:11.798Z,56.62
2018-04-12T06:46:39.292Z,56.48
2018-04-12T06:49:06.799Z,56.09
2018-04-12T06:51:34.316Z,55.01
2018-04-12T06:54:01.842Z,56.54
2018-04-12T06:56:29.334Z,56.12
2018-04-12T06:58:56.932Z,56.33
2018-04-12T07:01:24.444Z,55.85
2018-04-12T07:03:52.961Z,55.81
2018-04-12T07:06:20.440Z,55.75
2018-04-12T07:08:47.978Z,55.09
2018-04-12T07:11:15.516Z,54.15
2018-04-12T07:13:43.015Z,53.04
2018-04-12T07:16:10.539Z,53.11
2018-04-12T07:18:38.008Z,52.84
2018-04-12T07:21:05.561Z,52.78
2018-04-12T07:23:33.073Z,52.53
2018-04-12T07:26:00.532Z,52.30
2018-04-12T07:28:28.043Z,52.21
2018-04-12T07:30:55.568Z,52.15
2018-04-12T07:33:23.113Z,51.97
2018-04-12T07:35:50.598Z,51.72
2018-04-12T07:38:18.082Z,51.18
2018-04-12T07:40:45.627Z,51.48
2018-04-12T07:43:13.089Z,51.82
2018-04-12T07:45:40.706Z,51.05
2018-04-12T07:48:08.362Z,49.68
2018-04-12T07:50:35.847Z,48.73
2018-04-12T07:53:03.348Z,48.74
2018-04-12T07:55:31.015Z,48.28
2018-04-12T07:57:58.524Z,46.61
2018-04-12T08:00:26.034Z,45.53
2018-04-12T08:02:53.824Z,45.19
2018-04-12T08:05:21.315Z,45.43
2018-04-12T08:07:48.829Z,44.80
2018-04-12T08:10:16.319Z,43.62
2018-04-12T08:12:43.818Z,42.53
2018-04-12T08:15:11.305Z,42.41
2018-04-12T08:17:38.835Z,41.87
2018-04-12T08:20:06.308Z,41.65
2018-04-12T08:22:33.801Z,41.53
2018-04-12T08:25:01.283Z,41.75
2018-04-12T08:27:28.777Z,41.30
2018-04-12T08:29:56.282Z,40.94
2018-04-12T08:32:23.849Z,40.69
2018-04-12T08:34:51.353Z,39.62
2018-04-12T08:37:18.965Z,40.94
2018-04-12T08:39:46.454Z,41.00
2018-04-12T08:42:13.942Z,38.98
2018-04-12T08:44:41.395Z,40.01
2018-04-12T08:47:08.854Z,38.57
2018-04-12T08:49:36.356Z,38.37
2018-04-12T08:52:03.845Z,38.76
2018-04-12T08:54:31.464Z,39.48
2018-04-12T08:57:00.225Z,39.27
2018-04-12T08:59:27.732Z,38.86
2018-04-12T09:01:55.193Z,38.71
2018-04-12T09:04:22.654Z,39.00
2018-04-12T09:06:50.179Z,39.23
2018-04-12T09:09:17.761Z,38.21
2018-04-12T09:11:45.285Z,38.82
2018-04-12T09:14:12.736Z,37.73
2018-04-12T09:16:40.236Z,36.78
2018-04-12T09:19:07.866Z,36.43
2018-04-12T09:21:35.378Z,36.86
2018-04-12T09:24:02.847Z,37.20
2018-04-12T09:26:30.377Z,34.86
2018-04-12T09:28:57.856Z,34.56
2018-04-12T09:31:25.315Z,33.23
2018-04-12T09:33:52.778Z,33.37
2018-04-12T09:36:20.494Z,33.83
2018-04-12T09:38:48.034Z,33.83
2018-04-12T09:41:15.513Z,32.34
2018-04-12T09:43:43.005Z,32.16
2018-04-12T09:46:11.501Z,31.48
2018-04-12T09:48:39.049Z,30.56
2018-04-12T09:51:06.534Z,31.07
2018-04-12T09:53:34.164Z,32.20
2018-04-12T09:56:01.712Z,29.54
2018-04-12T09:58:29.161Z,29.22
2018-04-12T10:00:56.801Z,30.48
2018-04-12T10:03:24.392Z,29.58
2018-04-12T10:05:57.440Z,30.49
2018-04-12T10:08:27.733Z,30.61
2018-04-12T10:10:55.205Z,29.42
2018-04-12T10:13:22.697Z,30.63
2018-04-12T10:15:50.160Z,29.97
2018-04-12T10:18:17.663Z,30.48
2018-04-12T10:20:45.177Z,30.41
2018-04-12T10:23:12.757Z,30.29
2018-04-12T10:25:40.240Z,30.63
2018-04-12T10:28:07.712Z,29.98
2018-04-12T10:30:35.201Z,30.53
2018-04-12T10:33:02.673Z,30.12
2018-04-12T10:35:30.168Z,29.94
2018-04-12T10:37:57.630Z,29.75
2018-04-12T10:40:25.416Z,29.28
2018-04-12T10:42:52.903Z,29.99
2018-04-12T10:45:20.376Z,28.75
2018-04-12T10:47:47.838Z,28.03
2018-04-12T10:50:15.313Z,28.00
2018-04-12T10:52:42.779Z,27.35
2018-04-12T10:55:10.215Z,27.75
2018-04-12T10:57:37.737Z,27.06
2018-04-12T11:00:05.353Z,28.03
2018-04-12T11:02:32.914Z,27.57
2018-04-12T11:05:00.472Z,27.76
2018-04-12T11:07:27.895Z,29.44
2018-04-12T11:09:55.386Z,29.51
2018-04-12T11:12:22.867Z,28.34
2018-04-12T11:14:50.348Z,27.78
2018-04-12T11:17:17.792Z,27.70
2018-04-12T11:19:45.279Z,28.95
2018-04-12T11:22:12.951Z,27.19
2018-04-12T11:24:40.515Z,27.29
2018-04-12T11:27:08.117Z,27.03
2018-04-12T11:29:35.676Z,26.07
2018-04-12T11:32:03.146Z,25.73
2018-04-12T11:34:30.690Z,24.66
2018-04-12T11:36:58.221Z,23.56
2018-04-12T11:39:25.676Z,22.94
2018-04-12T11:41:53.309Z,24.10
2018-04-12T11:44:20.850Z,23.00
2018-04-12T11:46:48.357Z,23.94
2018-04-12T11:49:15.858Z,24.42
2018-04-12T11:51:43.324Z,22.76
2018-04-12T11:54:10.857Z,23.26
2018-04-12T11:56:38.368Z,22.94
2018-04-12T11:59:05.845Z,24.15
2018-04-12T12:01:33.318Z,23.27
2018-04-12T12:04:00.862Z,22.68
2018-04-12T12:06:28.407Z,22.53
2018-04-12T12:08:55.890Z,23.16
2018-04-12T12:11:23.368Z,23.17
2018-04-12T12:13:51.108Z,23.64
2018-04-12T12:16:18.597Z,22.61
2018-04-12T12:18:46.102Z,22.15
2018-04-12T12:21:13.620Z,22.50
2018-04-12T12:23:41.224Z,22.99
2018-04-12T12:26:08.713Z,21.75
2018-04-12T12:28:36.333Z,21.84
2018-04-12T12:31:03.828Z,22.95
2018-04-12T12:33:31.511Z,22.31
2018-04-12T12:35:59.010Z,22.56
2018-04-12T12:38:26.482Z,22.33
2018-04-12T12:40:53.994Z,23.04
2018-04-12T12:43:21.497Z,24.00
2018-04-12T12:45:48.970Z,23.33
2018-04-12T12:48:16.440Z,22.50
2018-04-12T12:50:44.970Z,21.93
2018-04-12T12:53:12.479Z,23.10
2018-04-12T12:55:39.978Z,20.66
2018-04-12T12:58:07.441Z,22.38
2018-04-12T13:00:35.303Z,23.02
2018-04-12T13:03:02.834Z,22.42
2018-04-12T13:05:30.327Z,23.15
2018-04-12T13:07:57.948Z,24.85
2018-04-12T13:10:25.432Z,23.70
2018-04-12T13:12:52.907Z,23.09
2018-04-12T13:15:20.387Z,23.79
2018-04-12T13:17:47.919Z,23.80
2018-04-12T13:20:15.562Z,21.29
2018-04-12T13:22:43.038Z,19.43
2018-04-12T13:25:10.605Z,19.83
2018-04-12T13:27:38.107Z,19.79
2018-04-12T13:30:05.643Z,20.38
2018-04-12T13:32:33.103Z,19.86
2018-04-12T13:35:04.000Z,19.45
2018-04-12T13:37:31.641Z,18.44
2018-04-12T13:39:59.190Z,19.80
2018-04-12T13:42:26.676Z,20.58
2018-04-12T13:44:54.146Z,19.57
2018-04-12T13:47:21.723Z,19.38
2018-04-12T13:49:49.199Z,20.02
2018-04-12T13:52:16.670Z,21.37
2018-04-12T13:54:44.314Z,20.50
2018-04-12T13:57:11.781Z,21.53
2018-04-12T13:59:39.272Z,20.79
2018-04-12T14:02:06.773Z,20.99
2018-04-12T14:04:34.255Z,21.65
2018-04-12T14:07:01.746Z,20.51
2018-04-12T14:09:29.203Z,19.48
2018-04-12T14:11:56.690Z,16.77
2018-04-12T14:14:24.181Z,16.31
2018-04-12T14:16:51.673Z,16.06
2018-04-12T14:19:19.158Z,14.88
2018-04-12T14:21:46.664Z,14.49
2018-04-12T14:24:15.651Z,13.83
2018-04-12T14:26:49.848Z,14.76
2018-04-12T14:29:19.636Z,15.85
2018-04-12T14:31:47.195Z,16.01
2018-04-12T14:34:14.759Z,17.32
2018-04-12T14:36:42.221Z,17.50
2018-04-12T14:39:09.855Z,17.09
2018-04-12T14:41:37.339Z,19.12
2018-04-12T14:44:04.801Z,19.85
2018-04-12T14:46:32.590Z,19.07
2018-04-12T14:49:00.057Z,20.61
2018-04-12T14:51:27.536Z,18.36
2018-04-12T14:53:55.078Z,17.60
2018-04-12T14:56:22.573Z,18.43
2018-04-12T14:58:50.182Z,17.43
2018-04-12T15:01:17.642Z,17.63
2018-04-12T15:03:45.117Z,17.40
2018-04-12T15:06:12.614Z,17.21
2018-04-12T15:08:40.103Z,16.13
2018-04-12T15:11:07.571Z,17.03
2018-04-12T15:13:35.126Z,14.44
2018-04-12T15:16:02.619Z,13.73
2018-04-12T15:18:30.230Z,14.22
2018-04-12T15:20:57.705Z,13.20
2018-04-12T15:23:25.219Z,12.84
2018-04-12T15:25:52.707Z,11.38
2018-04-12T15:28:20.382Z,11.62
2018-04-12T15:30:47.900Z,12.21
2018-04-12T15:33:16.452Z,13.02
2018-04-12T15:35:44.002Z,10.97
2018-04-12T15:38:11.455Z,11.92
2018-04-12T15:40:38.947Z,12.49
2018-04-12T15:43:08.487Z,14.18
2018-04-12T15:45:36.034Z,14.42
2018-04-12T15:48:03.555Z,14.40
2018-04-12T15:50:31.024Z,14.68
2018-04-12T15:52:58.510Z,13.75
2018-04-12T15:55:26.109Z,11.70
2018-04-12T15:57:53.586Z,11.01
2018-04-12T16:00:21.082Z,10.39
2018-04-12T16:02:48.633Z,11.46
2018-04-12T16:05:16.116Z,11.23
2018-04-12T16:07:43.692Z,11.21
2018-04-12T16:10:11.169Z,10.43
2018-04-12T16:12:38.638Z,10.42
2018-04-12T16:15:06.206Z,10.61
2018-04-12T16:17:33.693Z,12.04
2018-04-12T16:20:01.195Z,11.89
2018-04-12T16:22:28.705Z,12.64
2018-04-12T16:24:56.186Z,13.69
2018-04-12T16:27:23.831Z,15.06
2018-04-12T16:29:51.331Z,15.84
2018-04-12T16:32:18.832Z,16.59
2018-04-12T16:34:46.471Z,16.87
2018-04-12T16:37:13.974Z,17.01
2018-04-12T16:39:41.528Z,17.08
2018-04-12T16:42:09.002Z,18.46
2018-04-12T16:44:36.473Z,17.66
2018-04-12T16:47:03.959Z,17.03
2018-04-12T16:49:31.523Z,17.61
2018-04-12T16:51:59.072Z,16.99
2018-04-12T16:54:26.554Z,17.53
2018-04-12T16:56:54.027Z,17.51
2018-04-12T16:59:21.718Z,17.94
2018-04-12T17:01:49.220Z,18.44
2018-04-12T17:04:16.821Z,19.18
2018-04-12T17:06:44.352Z,18.83
2018-04-12T17:09:11.839Z,18.68
2018-04-12T17:11:39.320Z,19.36
2018-04-12T17:14:07.251Z,19.39
2018-04-12T17:16:34.824Z,19.21
2018-04-12T17:19:02.457Z,19.90
2018-04-12T17:21:30.155Z,20.25
2018-04-12T17:23:57.618Z,20.63
2018-04-12T17:26:25.181Z,20.60
2018-04-12T17:28:52.958Z,20.55
2018-04-12T17:31:21.298Z,20.70
2018-04-12T17:33:48.761Z,21.73
2018-04-12T17:36:16.240Z,22.05
2018-04-12T17:38:43.689Z,21.88
2018-04-12T17:41:11.252Z,21.87
2018-04-12T17:43:38.774Z,22.08
2018-04-12T17:46:06.271Z,23.59
2018-04-12T17:48:33.736Z,23.45
2018-04-12T17:51:01.321Z,23.37
2018-04-12T17:53:28.797Z,23.55
2018-04-12T17:55:56.370Z,24.13
2018-04-12T17:58:23.871Z,24.44
2018-04-12T18:00:51.444Z,24.75
2018-04-12T18:03:18.988Z,25.68
2018-04-12T18:05:46.461Z,26.97
2018-04-12T18:08:13.928Z,27.33
2018-04-12T18:10:41.419Z,27.68
2018-04-12T18:13:09.000Z,27.85
2018-04-12T18:15:36.670Z,28.49
2018-04-12T18:18:04.139Z,28.02
2018-04-12T18:20:31.750Z,27.28
2018-04-12T18:23:07.172Z,28.09
2018-04-12T18:25:34.830Z,28.17
2018-04-12T18:28:02.324Z,28.39
2018-04-12T18:30:29.859Z,27.96
2018-04-12T18:32:57.340Z,28.84
2018-04-12T18:35:25.832Z,29.03
2018-04-12T18:37:53.324Z,29.38
2018-04-12T18:40:21.030Z,30.79
2018-04-12T18:42:48.588Z,34.38
2018-04-12T18:45:16.295Z,42.49
2018-04-12T18:47:44.009Z,44.96
2018-04-12T18:50:11.595Z,43.83
2018-04-12T18:52:39.102Z,44.51
2018-04-12T18:55:06.694Z,44.55
2018-04-12T18:57:34.186Z,46.58
2018-04-12T19:00:01.759Z,46.26
2018-04-12T19:02:29.888Z,45.97
2018-04-12T19:04:57.502Z,48.80
2018-04-12T19:07:25.154Z,49.11
2018-04-12T19:09:52.692Z,48.88
2018-04-12T19:12:23.247Z,49.56
2018-04-12T19:14:50.869Z,49.83
2018-04-12T19:17:18.367Z,50.00
2018-04-12T19:19:46.160Z,50.05
2018-04-12T19:22:13.639Z,50.96
2018-04-12T19:24:41.244Z,50.26
2018-04-12T19:27:08.838Z,51.61
2018-04-12T19:29:36.366Z,51.62
2018-04-12T19:32:04.190Z,51.28
2018-04-12T19:34:31.866Z,51.63
2018-04-12T19:36:59.569Z,53.44
2018-04-12T19:39:27.176Z,52.62
2018-04-12T19:41:54.789Z,52.33
2018-04-12T19:44:22.326Z,54.18
2018-04-12T19:46:49.810Z,53.21
2018-04-12T19:49:17.292Z,55.70
2018-04-12T19:51:45.097Z,52.58
2018-04-12T19:54:12.633Z,53.73
2018-04-12T19:56:40.116Z,52.41
2018-04-12T19:59:07.644Z,52.58
2018-04-12T20:01:35.322Z,53.07
2018-04-12T20:04:03.202Z,53.42
2018-04-12T20:06:31.022Z,54.44
2018-04-12T20:08:58.506Z,55.60
2018-04-12T20:11:26.008Z,56.03
2018-04-12T20:13:53.570Z,56.51
2018-04-12T20:16:21.042Z,56.57
2018-04-12T20:18:48.606Z,57.28
2018-04-12T20:21:16.162Z,58.18
2018-04-12T20:23:43.642Z,56.93
2018-04-12T20:26:12.048Z,56.68
2018-04-12T20:28:40.124Z,57.31
2018-04-12T20:31:07.783Z,56.74
2018-04-12T20:33:35.603Z,56.85
2018-04-12T20:36:03.648Z,57.29
2018-04-12T20:38:34.099Z,57.09
2018-04-12T20:41:08.799Z,57.45
2018-04-12T20:47:01.451Z,58.62
2018-04-12T20:49:37.911Z,58.21
2018-04-12T20:52:05.392Z,58.72
2018-04-12T20:54:32.967Z,59.60
2018-04-12T20:57:03.388Z,60.33
2018-04-12T20:59:31.029Z,61.31
2018-04-12T21:01:58.720Z,59.33
2018-04-12T21:04:26.219Z,59.18
2018-04-12T21:06:53.894Z,59.55
2018-04-12T21:09:21.385Z,60.00
2018-04-12T21:11:48.910Z,59.90
2018-04-12T21:14:16.414Z,60.62
2018-04-12T21:16:43.937Z,61.28
2018-04-12T21:19:11.560Z,63.99
2018-04-12T21:21:39.051Z,61.36
2018-04-12T21:24:06.592Z,61.94
2018-04-12T21:26:34.093Z,62.51
2018-04-12T21:29:01.626Z,62.83
2018-04-12T21:31:29.126Z,62.77
2018-04-12T21:33:56.679Z,62.52
2018-04-12T21:36:24.159Z,62.57
2018-04-12T21:38:51.667Z,63.08
2018-04-12T21:41:19.159Z,62.90
2018-04-12T21:43:46.690Z,62.91
2018-04-12T21:46:14.192Z,62.61
2018-04-12T21:48:41.652Z,62.31
2018-04-12T21:51:09.124Z,62.84
2018-04-12T21:53:36.646Z,63.73
2018-04-12T21:56:04.130Z,63.49
2018-04-12T21:58:31.604Z,62.09
2018-04-12T22:00:59.126Z,61.12
2018-04-12T22:03:26.685Z,61.68
2018-04-12T22:05:54.252Z,61.21
2018-04-12T22:08:21.864Z,60.65
2018-04-12T22:10:49.362Z,59.61
2018-04-12T22:13:16.849Z,58.35
2018-04-12T22:15:44.382Z,58.66
2018-04-12T22:18:11.848Z,58.74
2018-04-12T22:20:39.335Z,58.89
2018-04-12T22:23:06.892Z,59.21
2018-04-12T22:25:34.365Z,60.29
2018-04-12T22:28:01.862Z,60.86
2018-04-12T22:30:29.356Z,61.37
2018-04-12T22:32:56.928Z,61.25
2018-04-12T22:35:24.434Z,61.68
2018-04-12T22:37:51.991Z,61.85
2018-04-12T22:40:19.466Z,61.38
2018-04-12T22:42:47.044Z,61.36
2018-04-12T22:45:14.540Z,61.39
2018-04-12T22:47:42.174Z,61.54
2018-04-12T22:50:09.651Z,61.95
2018-04-12T22:52:37.144Z,61.37
2018-04-12T22:55:04.625Z,61.37
2018-04-12T22:57:32.115Z,61.29
2018-04-12T22:59:59.593Z,61.58
2018-04-12T23:02:27.127Z,61.77
2018-04-12T23:04:54.614Z,61.69
2018-04-12T23:07:22.107Z,61.71
2018-04-12T23:09:49.562Z,61.86
2018-04-12T23:12:17.039Z,61.84
2018-04-12T23:14:44.544Z,62.04
2018-04-12T23:17:12.030Z,62.20
2018-04-12T23:19:39.534Z,62.65
2018-04-12T23:22:07.154Z,62.22
2018-04-12T23:24:34.620Z,62.40
2018-04-12T23:27:02.133Z,62.70
2018-04-12T23:29:29.611Z,62.92
2018-04-12T23:31:57.076Z,62.97
2018-04-12T23:34:24.587Z,63.35
2018-04-12T23:36:52.170Z,63.52
2018-04-12T23:39:19.644Z,63.86
2018-04-12T23:41:47.108Z,64.10
2018-04-12T23:44:14.573Z,64.26
2018-04-12T23:46:42.058Z,64.47
2018-04-12T23:49:09.513Z,64.47
2018-04-12T23:51:37.049Z,64.75
2018-04-12T23:54:04.574Z,64.56
2018-04-12T23:56:32.130Z,64.80
2018-04-12T23:58:59.613Z,65.06
